Time;durP1;ratioP1;P1;durP2;ratioP2;P2;SDS_P1;SDS_P2;PMS_P1;PMS_P2;Temp;Humidity;BMP_temperature;BMP_pressure;BME280_temperature;BME280_humidity;BME280_pressure;Samples;Min_cycle;Max_cycle;Signal;HPM_P1;HPM_P2
2021/12/04 00:00:35;;;;;;;0.10;0.10;;;;;;;3.63;88.14;100092.41;5057474;28;20107;-79
2021/12/04 00:03:00;;;;;;;0.10;0.10;;;;;;;3.62;88.41;100084.56;5058541;28;20763;-79
2021/12/04 00:05:26;;;;;;;0.10;0.10;;;;;;;3.63;88.42;100075.97;5055082;28;20667;-79
2021/12/04 00:07:51;;;;;;;0.10;0.10;;;;;;;3.63;88.45;100075.97;5049061;28;20368;-80
2021/12/04 00:10:26;;;;;;;0.10;0.10;;;;;;;3.64;88.36;100086.41;5013386;28;20041;-80
2021/12/04 00:12:52;;;;;;;0.10;0.10;;;;;;;3.66;88.24;100082.16;5025392;28;20035;-77
2021/12/04 00:15:17;;;;;;;0.20;0.20;;;;;;;3.69;88.65;100069.34;5057905;28;20025;-79
2021/12/04 00:17:43;;;;;;;0.40;0.40;;;;;;;3.67;88.47;100071.00;5058483;28;20102;-79
2021/12/04 00:20:09;;;;;;;0.10;0.10;;;;;;;3.68;88.37;100061.53;5061521;28;20079;-78
2021/12/04 00:22:35;;;;;;;0.13;0.13;;;;;;;3.69;88.46;100051.22;5060804;28;20406;-80
2021/12/04 00:25:00;;;;;;;0.30;0.30;;;;;;;3.72;87.64;100050.47;5051599;28;20058;-79
2021/12/04 00:27:26;;;;;;;0.20;0.20;;;;;;;3.68;88.14;100046.84;5035621;28;20040;-80
2021/12/04 00:29:51;;;;;;;0.10;0.10;;;;;;;3.67;88.36;100039.91;5059109;28;20303;-80
2021/12/04 00:32:30;;;;;;;0.03;0.03;;;;;;;3.71;88.35;100040.94;5047106;28;20045;-80
2021/12/04 00:35:08;;;;;;;0.00;0.00;;;;;;;3.69;88.44;100050.34;5025537;28;20025;-77
2021/12/04 00:51:27;;;;;;;0.10;0.10;;;;;;;3.67;88.32;100050.28;5049295;28;20110;-79
2021/12/04 00:53:54;;;;;;;0.10;0.10;;;;;;;3.69;88.30;100048.63;5048421;28;20379;-79
2021/12/04 00:56:21;;;;;;;0.10;0.10;;;;;;;3.70;88.41;100055.59;5042037;28;20029;-78
2021/12/04 00:58:46;;;;;;;0.00;0.00;;;;;;;3.72;88.49;100045.28;5054997;28;20189;-81
2021/12/04 01:01:15;;;;;;;0.10;0.10;;;;;;;3.74;88.45;100037.59;5058177;28;20425;-79
2021/12/04 01:03:40;;;;;;;0.10;0.10;;;;;;;3.72;88.35;100037.53;5058101;28;20081;-79
2021/12/04 01:06:06;;;;;;;0.10;0.10;;;;;;;3.71;88.26;100043.53;5057324;28;20378;-78
2021/12/04 01:08:32;;;;;;;0.00;0.00;;;;;;;3.70;88.44;100034.88;5056127;28;20264;-78
2021/12/04 01:10:57;;;;;;;0.10;0.10;;;;;;;3.71;88.59;100030.56;5056365;28;20089;-78
2021/12/04 01:13:23;;;;;;;0.10;0.10;;;;;;;3.71;88.51;100023.72;5057468;28;20353;-80
2021/12/04 01:15:48;;;;;;;0.10;0.10;;;;;;;3.75;88.52;100016.97;5032604;28;20075;-79
2021/12/04 01:18:13;;;;;;;0.10;0.10;;;;;;;3.75;88.55;100011.78;5020388;28;20049;-80
2021/12/04 01:20:39;;;;;;;0.10;0.10;;;;;;;3.75;88.30;100005.69;5051929;28;20259;-78
2021/12/04 01:23:05;;;;;;;0.10;0.10;;;;;;;3.74;88.31;99998.75;5057162;28;20017;-79
2021/12/04 01:25:30;;;;;;;0.10;0.10;;;;;;;3.74;88.47;100002.22;5031755;28;20108;-77
2021/12/04 01:27:56;;;;;;;0.10;0.10;;;;;;;3.76;88.42;100003.19;5050412;28;20130;-79
2021/12/04 01:30:22;;;;;;;0.10;0.10;;;;;;;3.73;88.47;99995.25;5058515;28;20029;-80
2021/12/04 01:32:47;;;;;;;0.10;0.10;;;;;;;3.76;88.39;99995.41;5022821;28;20024;-79
2021/12/04 01:35:13;;;;;;;0.10;0.10;;;;;;;3.76;88.47;100000.59;5051568;28;20030;-81
2021/12/04 01:37:41;;;;;;;0.23;0.23;;;;;;;3.76;88.29;100002.28;5046383;28;20299;-82
2021/12/04 01:40:07;;;;;;;0.20;0.20;;;;;;;3.76;88.32;100000.59;5022052;28;20392;-79
2021/12/04 01:42:35;;;;;;;0.10;0.10;;;;;;;3.76;88.34;100002.28;5019187;28;20080;-82
2021/12/04 01:45:02;;;;;;;0.10;0.10;;;;;;;3.78;88.28;100011.00;5056353;28;20330;-82
2021/12/04 01:47:27;;;;;;;0.20;0.20;;;;;;;3.78;88.35;100013.59;5045411;28;20387;-81
2021/12/04 01:49:54;;;;;;;0.20;0.20;;;;;;;3.77;88.29;100006.63;5022313;28;20025;-78
2021/12/04 01:52:20;;;;;;;0.10;0.10;;;;;;;3.78;88.47;100006.72;5050754;28;20049;-81
2021/12/04 01:54:46;;;;;;;0.10;0.10;;;;;;;3.76;88.41;100018.72;5055951;28;20059;-79
2021/12/04 01:57:15;;;;;;;0.20;0.20;;;;;;;3.75;88.55;100006.59;5037588;28;20455;-80
2021/12/04 01:59:41;;;;;;;0.10;0.10;;;;;;;3.78;88.34;100005.81;5035626;28;20376;-81
2021/12/04 02:02:07;;;;;;;0.20;0.20;;;;;;;3.75;88.58;99993.66;5035814;28;20029;-79
2021/12/04 02:04:32;;;;;;;0.20;0.20;;;;;;;3.76;88.54;99995.41;5036358;28;20154;-80
2021/12/04 02:07:02;;;;;;;0.10;0.10;;;;;;;3.75;88.13;99992.75;5027991;28;20076;-81
2021/12/04 02:09:28;;;;;;;0.10;0.10;;;;;;;3.76;88.44;99992.81;5019017;28;20053;-82
2021/12/04 02:11:53;;;;;;;0.10;0.10;;;;;;;3.73;88.75;99984.91;5020592;28;20022;-80
2021/12/04 02:14:19;;;;;;;0.10;0.10;;;;;;;3.76;88.63;99984.16;5005006;28;20505;-81
2021/12/04 02:16:45;;;;;;;0.10;0.10;;;;;;;3.76;88.33;99981.56;5019905;28;20407;-81
2021/12/04 02:19:10;;;;;;;0.10;0.10;;;;;;;3.76;88.63;99991.94;5019663;28;20021;-80
2021/12/04 02:21:36;;;;;;;0.20;0.20;;;;;;;3.76;88.60;99984.16;5021695;28;20030;-80
2021/12/04 02:24:01;;;;;;;0.07;0.07;;;;;;;3.75;88.84;99980.69;5021456;28;20388;-80
2021/12/04 02:26:27;;;;;;;0.20;0.20;;;;;;;3.75;88.73;99991.06;5020593;28;20030;-81
2021/12/04 02:28:54;;;;;;;0.10;0.10;;;;;;;3.78;88.76;99992.88;5021180;28;20369;-84
2021/12/04 02:31:20;;;;;;;0.10;0.10;;;;;;;3.76;88.89;99992.81;5040707;28;20017;-83
2021/12/04 02:33:46;;;;;;;0.20;0.20;;;;;;;3.78;88.82;99983.41;5039903;28;20384;-80
2021/12/04 02:36:11;;;;;;;0.43;0.43;;;;;;;3.78;88.66;99982.50;5038354;28;20029;-83
2021/12/04 02:38:36;;;;;;;0.10;0.10;;;;;;;3.77;88.42;99984.22;5019686;28;20021;-79
2021/12/04 02:41:02;;;;;;;0.10;0.10;;;;;;;3.77;88.84;99984.22;5038124;28;20026;-79
2021/12/04 02:43:32;;;;;;;0.10;0.10;;;;;;;3.77;88.79;99984.22;5036833;28;20116;-79
2021/12/04 02:45:57;;;;;;;0.10;0.10;;;;;;;3.78;89.03;99982.50;5036481;28;20049;-81
2021/12/04 02:48:23;;;;;;;0.10;0.10;;;;;;;3.80;88.75;99976.56;5029694;28;20021;-82
2021/12/04 02:50:49;;;;;;;0.10;0.10;;;;;;;3.80;88.89;99981.75;5038273;28;20116;-80
2021/12/04 02:53:14;;;;;;;0.20;0.20;;;;;;;3.81;88.88;99977.47;5039655;28;20056;-82
2021/12/04 02:55:40;;;;;;;0.10;0.10;;;;;;;3.82;88.65;99976.66;5037979;28;20017;-84
2021/12/04 02:58:06;;;;;;;0.10;0.10;;;;;;;3.83;89.05;99970.66;5040562;28;20039;-82
2021/12/04 03:00:32;;;;;;;0.20;0.20;;;;;;;3.83;89.05;99968.06;5038446;28;20041;-80
2021/12/04 03:02:57;;;;;;;0.00;0.00;;;;;;;3.94;88.84;99974.56;5038202;28;20104;-83
2021/12/04 03:05:26;;;;;;;0.10;0.10;;;;;;;3.92;88.86;99978.78;5038403;28;20025;-83
2021/12/04 03:07:53;;;;;;;0.10;0.10;;;;;;;3.90;89.03;99979.53;5037947;28;20033;-82
2021/12/04 03:10:19;;;;;;;0.10;0.10;;;;;;;3.88;88.81;99979.50;5037265;28;20041;-82
2021/12/04 03:12:45;;;;;;;0.13;0.13;;;;;;;3.87;88.90;99975.16;5021235;28;20391;-82
2021/12/04 03:15:10;;;;;;;0.13;0.13;;;;;;;3.88;88.86;99973.41;5035194;28;20041;-82
2021/12/04 03:17:36;;;;;;;0.10;0.10;;;;;;;3.90;89.00;99966.59;5039441;28;20392;-80
2021/12/04 03:20:03;;;;;;;0.10;0.10;;;;;;;3.90;89.05;99969.19;5039425;28;20020;-81
2021/12/04 03:22:29;;;;;;;0.10;0.10;;;;;;;3.90;89.02;99967.50;5038299;28;20288;-82
2021/12/04 03:24:56;;;;;;;0.10;0.10;;;;;;;3.94;89.02;99948.66;5038057;28;20013;-80
2021/12/04 03:27:22;;;;;;;0.10;0.10;;;;;;;3.96;88.97;99949.63;5039447;28;20021;-80
2021/12/04 03:29:57;;;;;;;0.10;0.10;;;;;;;3.95;88.69;99945.25;5037664;28;20072;-81
2021/12/04 03:43:10;;;;;;;0.10;0.10;;;;;;;3.91;89.04;99921.75;5037821;28;20300;-82
2021/12/04 03:45:37;;;;;;;0.10;0.10;;;;;;;3.90;89.24;99925.16;5037225;28;20021;-84
2021/12/04 03:48:10;;;;;;;0.10;0.10;;;;;;;3.95;89.01;99924.53;5038816;28;20028;-83
2021/12/04 03:50:36;;;;;;;0.10;0.10;;;;;;;3.93;88.88;99915.78;5018045;28;20033;-82
2021/12/04 03:53:02;;;;;;;0.10;0.10;;;;;;;3.92;88.95;99919.22;5039520;28;20021;-82
2021/12/04 03:55:27;;;;;;;0.10;0.10;;;;;;;3.92;89.19;99918.34;5039974;28;20044;-84
2021/12/04 03:57:53;;;;;;;0.10;0.10;;;;;;;3.91;89.21;99920.03;5039031;28;20025;-83
2021/12/04 04:00:19;;;;;;;0.07;0.07;;;;;;;3.93;89.02;99915.78;5021565;28;20402;-82
2021/12/04 04:02:44;;;;;;;0.10;0.10;;;;;;;3.94;89.21;99917.56;5037257;28;20029;-83
2021/12/04 04:05:10;;;;;;;0.00;0.00;;;;;;;3.92;89.22;99913.16;5038607;28;20025;-82
2021/12/04 04:07:37;;;;;;;0.10;0.10;;;;;;;3.94;88.96;99920.16;5038588;28;20392;-84
2021/12/04 04:10:04;;;;;;;0.10;0.10;;;;;;;3.94;89.17;99917.56;5038188;28;20048;-82
2021/12/04 04:12:29;;;;;;;0.10;0.10;;;;;;;3.96;89.19;99910.75;5039449;28;20018;-82
2021/12/04 04:14:55;;;;;;;0.00;0.00;;;;;;;3.95;89.25;99908.09;5038458;28;20032;-81
2021/12/04 04:17:20;;;;;;;0.00;0.00;;;;;;;3.95;89.38;99909.00;5032198;28;20017;-82
2021/12/04 04:19:46;;;;;;;0.07;0.07;;;;;;;3.94;89.47;99896.84;5001780;28;20120;-83
2021/12/04 04:22:11;;;;;;;0.07;0.07;;;;;;;3.95;89.18;99892.56;5002285;28;20022;-84
2021/12/04 04:24:36;;;;;;;0.00;0.00;;;;;;;3.96;89.25;99899.50;5017161;28;20048;-84
2021/12/04 04:27:02;;;;;;;0.10;0.10;;;;;;;3.94;89.22;99891.66;5019323;28;20032;-83
2021/12/04 04:29:27;;;;;;;0.00;0.00;;;;;;;3.96;89.42;99896.91;5019124;28;20026;-83
2021/12/04 04:31:55;;;;;;;0.00;0.00;;;;;;;3.97;88.88;99901.25;5026834;28;20376;-82
2021/12/04 04:34:25;;;;;;;0.10;0.10;;;;;;;3.97;89.24;99902.16;5037835;28;20335;-83
2021/12/04 05:14:54;;;;;;;0.20;0.20;;;;;;;3.95;89.86;99856.28;5007949;28;20041;-82
2021/12/04 05:17:30;;;;;;;0.00;0.00;;;;;;;3.98;89.39;99854.69;5019005;28;20030;-81
2021/12/04 05:19:55;;;;;;;0.00;0.00;;;;;;;3.97;89.39;99860.72;5019559;28;20108;-82
2021/12/04 05:22:22;;;;;;;0.10;0.10;;;;;;;3.97;89.60;99854.63;5002777;28;20426;-82
2021/12/04 05:24:48;;;;;;;0.10;0.10;;;;;;;3.96;89.46;99848.59;5018208;28;20273;-82
2021/12/04 05:27:13;;;;;;;0.10;0.10;;;;;;;3.95;89.54;99835.56;5003728;28;20399;-83
2021/12/04 05:29:39;;;;;;;0.00;0.00;;;;;;;3.97;89.43;99845.16;5017695;28;20299;-83
2021/12/04 05:32:05;;;;;;;0.10;0.10;;;;;;;3.98;89.53;99840.84;5038544;28;20021;-84
2021/12/04 05:34:31;;;;;;;0.10;0.10;;;;;;;3.95;89.43;99854.59;5026513;28;20034;-85
2021/12/04 05:36:57;;;;;;;0.07;0.07;;;;;;;3.95;89.36;99845.94;5002702;28;20026;-82
2021/12/04 05:39:22;;;;;;;0.20;0.20;;;;;;;3.96;89.20;99847.69;5001686;28;20120;-82
2021/12/04 05:41:48;;;;;;;0.67;0.30;;;;;;;3.98;89.51;99843.44;5004660;28;20040;-82
2021/12/04 05:44:15;;;;;;;0.10;0.10;;;;;;;3.97;89.52;99850.34;5037482;28;20029;-81
2021/12/04 05:46:54;;;;;;;0.10;0.10;;;;;;;3.96;89.21;99846.00;5026420;28;20022;-83
2021/12/04 05:52:12;;;;;;;0.10;0.10;;;;;;;4.00;89.27;99839.22;5042027;28;20021;-78
2021/12/04 05:57:07;;;;;;;0.10;0.10;;;;;;;3.99;89.05;99834.88;5035489;28;20037;-83
2021/12/04 05:59:33;;;;;;;0.10;0.10;;;;;;;3.98;88.98;99830.50;5020493;28;20026;-83
2021/12/04 06:01:59;;;;;;;0.10;0.10;;;;;;;3.97;89.16;99827.03;5020675;28;20284;-83
2021/12/04 06:04:24;;;;;;;0.10;0.10;;;;;;;3.98;89.04;99835.66;5004150;28;20018;-82
2021/12/04 06:06:51;;;;;;;0.10;0.10;;;;;;;3.93;88.72;99837.22;5021588;28;20380;-81
2021/12/04 06:09:16;;;;;;;0.10;0.10;;;;;;;3.94;88.80;99832.06;5011030;28;20073;-82
2021/12/04 06:11:42;;;;;;;0.00;0.00;;;;;;;3.92;89.09;99838.91;5028747;28;20061;-82
2021/12/04 06:14:07;;;;;;;0.00;0.00;;;;;;;3.91;89.02;99828.50;5039953;28;20034;-82
2021/12/04 06:16:33;;;;;;;0.00;0.00;;;;;;;3.89;89.01;99833.63;5046944;28;20072;-81
2021/12/04 06:19:05;;;;;;;0.20;0.20;;;;;;;3.89;88.99;99837.91;5034391;28;20051;-79
2021/12/04 06:24:15;;;;;;;0.10;0.10;;;;;;;3.91;89.17;99824.19;5040834;28;20048;-81
2021/12/04 06:26:40;;;;;;;0.10;0.10;;;;;;;3.90;89.06;99822.44;5019970;28;20022;-82
2021/12/04 06:29:06;;;;;;;0.10;0.10;;;;;;;3.91;89.17;99821.59;5004349;28;20084;-82
2021/12/04 06:31:32;;;;;;;0.10;0.10;;;;;;;3.90;89.19;99824.13;5020294;28;20056;-81
2021/12/04 06:33:57;;;;;;;0.10;0.10;;;;;;;3.89;89.05;99828.44;5005407;28;20061;-82
2021/12/04 06:36:25;;;;;;;0.20;0.20;;;;;;;3.88;89.16;99821.50;5003910;28;20344;-82
2021/12/04 06:38:51;;;;;;;0.10;0.10;;;;;;;3.88;89.45;99830.97;5004753;28;20025;-82
2021/12/04 06:41:16;;;;;;;0.00;0.00;;;;;;;3.86;89.44;99830.88;5004549;28;20068;-82
2021/12/04 06:43:47;;;;;;;0.17;0.17;;;;;;;3.90;89.18;99829.31;5020817;28;20324;-81
2021/12/04 06:46:13;;;;;;;0.10;0.10;;;;;;;3.91;89.34;99823.34;5013870;28;20048;-80
2021/12/04 06:48:42;;;;;;;0.00;0.00;;;;;;;3.89;89.18;99831.03;5039158;28;20095;-82
2021/12/04 06:54:00;;;;;;;0.00;0.00;;;;;;;3.88;89.40;99829.28;5041090;28;20049;-81
2021/12/04 06:56:32;;;;;;;0.00;0.00;;;;;;;3.84;89.37;99822.19;5039715;28;20021;-82
2021/12/04 06:59:00;;;;;;;0.00;0.00;;;;;;;3.82;89.33;99834.19;5040132;28;20380;-83
2021/12/04 07:01:25;;;;;;;0.10;0.10;;;;;;;3.81;89.45;99824.66;5039777;28;20156;-82
2021/12/04 07:03:51;;;;;;;0.00;0.00;;;;;;;3.78;89.02;99815.06;5039904;28;20049;-80
2021/12/04 07:06:17;;;;;;;0.10;0.10;;;;;;;3.79;89.81;99818.56;5040886;28;20025;-78
2021/12/04 07:08:42;;;;;;;0.10;0.10;;;;;;;3.76;89.33;99813.22;5040165;28;20034;-80
2021/12/04 07:11:07;;;;;;;0.13;0.13;;;;;;;3.73;89.30;99810.53;5039722;28;20032;-81
2021/12/04 07:13:34;;;;;;;0.10;0.10;;;;;;;3.74;89.34;99807.97;5040397;28;20288;-80
2021/12/04 07:16:04;;;;;;;0.20;0.20;;;;;;;3.76;89.35;99808.06;5040336;28;20025;-81
2021/12/04 07:18:30;;;;;;;0.10;0.10;;;;;;;3.74;88.69;99809.72;5039819;28;20094;-82
2021/12/04 07:20:56;;;;;;;0.13;0.13;;;;;;;3.71;88.94;99815.66;5039975;28;20033;-81
2021/12/04 07:23:21;;;;;;;0.20;0.20;;;;;;;3.68;89.04;99812.94;5028176;28;20357;-81
2021/12/04 07:25:47;;;;;;;0.10;0.10;;;;;;;3.67;88.77;99811.19;5021927;28;20077;-81
2021/12/04 07:28:12;;;;;;;0.10;0.10;;;;;;;3.68;88.88;99798.28;5020143;28;20025;-81
2021/12/04 07:30:38;;;;;;;0.10;0.10;;;;;;;3.67;88.92;99793.06;5021601;28;20026;-81
2021/12/04 07:33:03;;;;;;;0.10;0.10;;;;;;;3.65;89.00;99780.03;5019178;28;20029;-81
2021/12/04 07:35:29;;;;;;;0.10;0.10;;;;;;;3.64;89.09;99780.88;5018941;28;20116;-81
2021/12/04 07:37:54;;;;;;;0.10;0.10;;;;;;;3.65;89.13;99779.16;5024994;28;20041;-83
2021/12/04 07:40:20;;;;;;;0.10;0.10;;;;;;;3.62;88.86;99777.31;5039927;28;20068;-84
2021/12/04 07:42:45;;;;;;;0.10;0.10;;;;;;;3.63;89.13;99767.84;5038551;28;20017;-83
2021/12/04 07:45:11;;;;;;;0.10;0.10;;;;;;;3.64;89.20;99764.44;5021917;28;20068;-87
2021/12/04 07:47:40;;;;;;;0.10;0.10;;;;;;;3.64;88.61;99765.34;5025331;28;20017;-85
2021/12/04 07:50:07;;;;;;;0.10;0.10;;;;;;;3.58;88.75;99765.09;5026230;28;20025;-84
2021/12/04 07:52:32;;;;;;;0.10;0.10;;;;;;;3.56;88.74;99765.00;5024040;28;20039;-80
2021/12/04 07:55:02;;;;;;;0.10;0.10;;;;;;;3.52;88.49;99759.66;5043913;28;20041;-84
2021/12/04 07:57:27;;;;;;;0.17;0.17;;;;;;;3.48;88.59;99758.66;5027912;28;20053;-80
2021/12/04 07:59:53;;;;;;;0.23;0.23;;;;;;;3.42;88.60;99756.72;5040014;28;20025;-80
2021/12/04 08:02:18;;;;;;;0.10;0.10;;;;;;;3.44;88.37;99747.28;5043686;28;20036;-84
2021/12/04 08:04:45;;;;;;;0.10;0.10;;;;;;;3.39;88.51;99747.94;5041138;28;20097;-84
2021/12/04 08:07:11;;;;;;;0.30;0.30;;;;;;;3.38;88.78;99746.19;5042262;28;20048;-82
2021/12/04 08:09:36;;;;;;;0.13;0.13;;;;;;;3.39;89.02;99750.53;5041507;28;20045;-80
2021/12/04 08:12:02;;;;;;;0.10;0.10;;;;;;;3.42;88.79;99753.22;5023011;28;20116;-80
2021/12/04 08:14:28;;;;;;;0.10;0.10;;;;;;;3.36;88.75;99751.28;5039144;28;20037;-82
2021/12/04 08:16:53;;;;;;;0.13;0.13;;;;;;;3.33;88.88;99752.84;5014169;28;20123;-84
2021/12/04 08:19:19;;;;;;;0.10;0.10;;;;;;;3.37;88.88;99750.44;5039656;28;20380;-82
2021/12/04 08:21:53;;;;;;;0.20;0.20;;;;;;;3.33;88.80;99766.69;5040311;28;20029;-86
2021/12/04 08:24:19;;;;;;;0.10;0.10;;;;;;;3.32;88.80;99776.97;5024179;28;20085;-81
2021/12/04 08:26:46;;;;;;;0.10;0.10;;;;;;;3.34;88.82;99781.41;5039575;28;20059;-81
2021/12/04 08:29:13;;;;;;;0.10;0.10;;;;;;;3.35;88.55;99784.88;5039929;28;20037;-82
2021/12/04 08:31:38;;;;;;;0.10;0.10;;;;;;;3.37;88.86;99778.06;5038335;28;20025;-80
2021/12/04 08:34:04;;;;;;;0.10;0.10;;;;;;;3.36;88.90;99774.56;5040239;28;20330;-80
2021/12/04 08:36:32;;;;;;;0.10;0.10;;;;;;;3.40;88.50;99763.53;5023689;28;20045;-81
2021/12/04 08:39:00;;;;;;;0.20;0.20;;;;;;;3.43;88.92;99768.81;5018379;28;20037;-83
2021/12/04 08:41:26;;;;;;;0.10;0.10;;;;;;;3.41;88.92;99761.81;5038299;28;20029;-84
2021/12/04 08:43:55;;;;;;;0.10;0.10;;;;;;;3.44;89.16;99767.13;5021060;28;20041;-82
2021/12/04 08:46:22;;;;;;;0.00;0.00;;;;;;;3.43;89.48;99766.25;5022929;28;20018;-82
2021/12/04 08:48:49;;;;;;;0.10;0.10;;;;;;;3.44;89.13;99755.06;5027476;28;20021;-80
2021/12/04 08:51:17;;;;;;;0.20;0.20;;;;;;;3.43;88.97;99753.28;5024164;28;20048;-82
2021/12/04 08:53:43;;;;;;;0.10;0.10;;;;;;;3.44;89.39;99757.66;5027260;28;20057;-84
2021/12/04 08:56:08;;;;;;;0.20;0.20;;;;;;;3.48;88.95;99755.19;5005839;28;20018;-82
2021/12/04 08:58:37;;;;;;;0.10;0.10;;;;;;;3.50;88.66;99741.50;5022953;28;20025;-81
2021/12/04 09:01:05;;;;;;;0.07;0.07;;;;;;;3.50;88.86;99744.09;5021893;28;20025;-83
2021/12/04 09:03:34;;;;;;;0.07;0.07;;;;;;;3.50;89.01;99744.09;5022527;28;20018;-82
2021/12/04 09:06:01;;;;;;;0.10;0.10;;;;;;;3.51;89.01;99738.09;5023519;28;20072;-80
2021/12/04 09:08:28;;;;;;;0.10;0.10;;;;;;;3.54;88.81;99733.00;5007342;28;20113;-84
2021/12/04 09:10:57;;;;;;;0.00;0.00;;;;;;;3.57;88.78;99737.44;5023587;28;20029;-80
2021/12/04 09:13:24;;;;;;;0.10;0.10;;;;;;;3.58;88.92;99728.84;5023136;28;20032;-80
2021/12/04 09:15:50;;;;;;;0.10;0.10;;;;;;;3.65;89.15;99728.25;5026358;28;20101;-83
2021/12/04 09:18:16;;;;;;;0.10;0.10;;;;;;;3.73;88.78;99730.25;5012014;28;20029;-79
2021/12/04 09:20:42;;;;;;;0.10;0.10;;;;;;;3.69;88.73;99724.06;5030114;28;20025;-82
2021/12/04 09:23:13;;;;;;;0.00;0.00;;;;;;;3.67;88.69;99729.19;5033866;28;20068;-82
2021/12/04 09:25:42;;;;;;;0.10;0.10;;;;;;;3.70;88.86;99728.44;5016643;28;20049;-83
2021/12/04 09:28:27;;;;;;;0.10;0.10;;;;;;;3.73;89.05;99736.31;5031376;28;20388;-79
2021/12/04 09:31:20;;;;;;;0.00;0.00;;;;;;;3.75;88.90;99720.84;5031850;28;20117;-84
2021/12/04 10:00:57;;;;;;;0.00;0.00;;;;;;;3.97;88.29;99694.91;5022398;28;20040;-80
2021/12/04 10:14:42;;;;;;;0.10;0.10;;;;;;;4.17;88.62;99666.25;5023132;28;20056;-84
2021/12/04 10:20:02;;;;;;;0.00;0.00;;;;;;;4.23;88.37;99666.47;5041957;28;20037;-83
2021/12/04 10:22:40;;;;;;;0.07;0.07;;;;;;;4.29;88.22;99670.97;5041153;28;20044;-83
2021/12/04 10:33:27;;;;;;;;;;;;;;;4.35;88.14;99666.00;5043035;28;20110;-82
2021/12/04 10:35:53;;;;;;;0.10;0.10;;;;;;;4.39;88.06;99667.91;5041748;28;20271;-80
2021/12/04 10:38:25;;;;;;;0.10;0.10;;;;;;;4.40;87.76;99669.66;5023882;28;20021;-81
2021/12/04 10:40:52;;;;;;;0.10;0.10;;;;;;;4.41;87.92;99667.94;5041215;28;20321;-82
2021/12/04 10:43:27;;;;;;;0.10;0.10;;;;;;;4.46;87.80;99670.66;5039630;28;20044;-79
2021/12/04 10:45:56;;;;;;;0.10;0.10;;;;;;;4.43;87.78;99662.81;5026772;28;20029;-76
2021/12/04 10:48:28;;;;;;;0.10;0.10;;;;;;;4.45;87.61;99669.81;5021955;28;20071;-77
2021/12/04 10:53:29;;;;;;;0.10;0.10;;;;;;;4.41;87.46;99667.94;5041021;28;20040;-82
2021/12/04 10:56:11;;;;;;;0.10;0.10;;;;;;;4.39;87.02;99662.72;5043055;28;20056;-79
2021/12/04 11:27:08;;;;;;;0.15;0.15;;;;;;;4.26;87.94;99612.13;5020843;28;20324;-82
2021/12/04 11:40:35;;;;;;;0.30;0.30;;;;;;;4.29;87.96;99589.78;5021603;28;20309;-82
2021/12/04 11:43:09;;;;;;;0.10;0.10;;;;;;;4.30;88.15;99582.03;5007020;28;20049;-84
2021/12/04 11:46:20;;;;;;;0.10;0.10;;;;;;;4.36;88.38;99574.47;5026246;28;20352;-80
2021/12/04 11:48:35;;;;;;;0.03;0.03;;;;;;;4.35;88.16;99574.44;5044755;28;20033;-82
2021/12/04 11:51:03;;;;;;;0.10;0.10;;;;;;;4.35;88.27;99558.88;5014266;28;20034;-80
2021/12/04 11:53:31;;;;;;;0.10;0.10;;;;;;;4.44;88.34;99571.25;5025055;28;20113;-79
2021/12/04 11:55:57;;;;;;;0.13;0.13;;;;;;;4.45;87.79;99562.63;5033529;28;20025;-82
2021/12/04 11:58:27;;;;;;;0.10;0.10;;;;;;;4.40;88.11;99568.56;5038600;28;20033;-81
2021/12/04 12:00:58;;;;;;;0.10;0.10;;;;;;;4.42;88.08;99583.28;5041636;28;20029;-80
2021/12/04 12:03:27;;;;;;;0.10;0.10;;;;;;;4.37;88.06;99589.19;5039032;28;20339;-82
2021/12/04 12:06:04;;;;;;;0.10;0.10;;;;;;;4.35;88.15;99588.25;5038966;28;20021;-78
2021/12/04 12:08:33;;;;;;;;;;;;;;;4.34;88.21;99583.91;5021487;28;20036;-78
2021/12/04 12:11:25;;;;;;;0.10;0.10;;;;;;;4.34;88.17;99580.41;5037761;28;19913;-77
2021/12/04 12:14:00;;;;;;;0.10;0.10;;;;;;;4.31;88.28;99576.03;5031780;28;20099;-79
2021/12/04 12:16:34;;;;;;;0.10;0.10;;;;;;;4.31;88.62;99573.44;5035855;28;20116;-80
2021/12/04 12:19:04;;;;;;;0.10;0.10;;;;;;;4.33;88.71;99570.88;5020428;28;20075;-75
2021/12/04 12:22:06;;;;;;;0.10;0.10;;;;;;;4.34;88.24;99564.84;5039485;28;20113;-77
2021/12/04 12:38:11;;;;;;;0.07;0.07;;;;;;;4.40;88.54;99552.13;5037616;28;20060;-75
2021/12/04 12:40:37;;;;;;;0.10;0.10;;;;;;;4.40;88.77;99547.81;5036573;28;20383;-73
2021/12/04 12:43:17;;;;;;;0.23;0.23;;;;;;;4.40;88.75;99544.34;5037243;28;20030;-72
2021/12/04 12:45:52;;;;;;;0.00;0.00;;;;;;;4.43;88.91;99546.16;5036756;28;20434;-73
2021/12/04 12:48:18;;;;;;;0.10;0.10;;;;;;;4.42;88.62;99544.41;5036937;28;20029;-73
2021/12/04 12:50:46;;;;;;;0.10;0.10;;;;;;;4.44;88.60;99551.41;5037215;28;20045;-73
2021/12/04 12:53:26;;;;;;;0.10;0.10;;;;;;;4.40;88.72;99542.63;5037071;28;20022;-80
2021/12/04 12:56:04;;;;;;;0.10;0.10;;;;;;;4.40;88.64;99537.44;5037327;28;20021;-74
2021/12/04 12:58:38;;;;;;;0.00;0.00;;;;;;;4.42;88.83;99531.44;5037832;28;20109;-74
2021/12/04 13:12:11;;;;;;;0.10;0.10;;;;;;;4.45;88.86;99540.19;5038215;28;20043;-75
2021/12/04 13:14:40;;;;;;;0.10;0.10;;;;;;;4.46;88.87;99539.34;5036363;28;20101;-72
2021/12/04 13:17:07;;;;;;;0.00;0.00;;;;;;;4.46;88.19;99539.34;5037719;28;20113;-71
2021/12/04 13:19:36;;;;;;;0.00;0.00;;;;;;;4.47;87.90;99548.88;5036370;28;20025;-70
2021/12/04 13:22:09;;;;;;;0.10;0.10;;;;;;;4.46;88.06;99551.44;5036939;28;20021;-70
2021/12/04 13:24:37;;;;;;;0.23;0.23;;;;;;;4.45;87.91;99549.66;5025922;28;20128;-69
2021/12/04 13:29:54;;;;;;;0.10;0.10;;;;;;;4.38;87.92;99552.06;5034725;28;20387;-69
2021/12/04 13:32:32;;;;;;;0.10;0.10;;;;;;;4.34;88.03;99550.22;5017122;28;20280;-69
2021/12/04 13:35:20;;;;;;;0.00;0.00;;;;;;;4.36;87.94;99556.31;5016978;28;20036;-70
2021/12/04 13:37:47;;;;;;;0.00;0.00;;;;;;;4.35;87.35;99561.47;5018544;28;20033;-69
2021/12/04 13:40:19;;;;;;;0.10;0.10;;;;;;;4.33;87.54;99558.81;5015272;28;20055;-68
2021/12/04 13:42:45;;;;;;;0.10;0.10;;;;;;;4.33;87.82;99558.81;5035616;28;20139;-68
2021/12/04 13:45:13;;;;;;;0.10;0.10;;;;;;;4.32;87.60;99558.75;5036862;28;20361;-69
2021/12/04 13:47:39;;;;;;;0.10;0.10;;;;;;;4.32;87.48;99571.72;5035891;28;20029;-69
2021/12/04 13:50:22;;;;;;;0.10;0.10;;;;;;;4.29;87.55;99567.31;5036202;28;20045;-68
2021/12/04 13:52:48;;;;;;;0.10;0.10;;;;;;;4.28;87.46;99575.91;5036044;28;20038;-70
2021/12/04 13:55:16;;;;;;;0.10;0.10;;;;;;;4.27;87.78;99571.56;5036866;28;20098;-68
2021/12/04 13:57:42;;;;;;;0.10;0.10;;;;;;;4.25;87.66;99568.03;5035931;28;20067;-70
2021/12/04 14:00:10;;;;;;;0.10;0.10;;;;;;;4.24;87.83;99567.16;5036459;28;20026;-71
2021/12/04 14:02:36;;;;;;;0.10;0.10;;;;;;;4.24;87.70;99579.25;5037277;28;20022;-68
2021/12/04 14:05:07;;;;;;;0.00;0.00;;;;;;;4.24;87.71;99572.34;5021590;28;20040;-70
2021/12/04 14:07:34;;;;;;;0.10;0.10;;;;;;;4.24;87.70;99572.34;5022698;28;20034;-69
2021/12/04 14:10:11;;;;;;;0.10;0.10;;;;;;;4.26;87.57;99575.00;5019049;28;20034;-68
2021/12/04 14:12:37;;;;;;;0.10;0.10;;;;;;;4.25;87.53;99584.47;5020313;28;20018;-68
2021/12/04 14:15:14;;;;;;;0.10;0.10;;;;;;;4.25;87.02;99588.78;5019861;28;20032;-71
2021/12/04 14:17:39;;;;;;;0.10;0.10;;;;;;;4.24;87.12;99587.03;5019984;28;20032;-69
2021/12/04 14:20:06;;;;;;;0.10;0.10;;;;;;;4.24;87.08;99587.03;5024774;28;20033;-68
2021/12/04 14:22:31;;;;;;;0.10;0.10;;;;;;;4.26;87.31;99588.81;5033932;28;20287;-69
2021/12/04 14:25:01;;;;;;;0.00;0.00;;;;;;;4.26;87.58;99600.91;5037254;28;20020;-69
2021/12/04 14:27:32;;;;;;;0.10;0.10;;;;;;;4.27;87.81;99592.28;5033093;28;20033;-68
2021/12/04 14:30:05;;;;;;;0.10;0.10;;;;;;;4.28;87.81;99594.06;5029352;28;20022;-69
2021/12/04 14:32:33;;;;;;;0.00;0.00;;;;;;;4.29;87.99;99603.59;5018891;28;20041;-69
2021/12/04 14:35:17;;;;;;;0.00;0.00;;;;;;;4.29;87.90;99608.78;5037214;28;20076;-69
2021/12/04 14:37:55;;;;;;;0.10;0.10;;;;;;;4.33;88.32;99613.25;5038295;28;20033;-69
2021/12/04 14:40:45;;;;;;;0.00;0.00;;;;;;;4.33;87.74;99600.28;5038182;28;20025;-69
2021/12/04 14:43:16;;;;;;;0.10;0.10;;;;;;;4.34;88.43;99614.09;5039300;28;20396;-69
2021/12/04 14:45:44;;;;;;;0.00;0.00;;;;;;;4.36;88.12;99609.88;5038184;28;20022;-69
2021/12/04 14:48:23;;;;;;;0.10;0.10;;;;;;;4.41;88.60;99603.13;5039047;28;20029;-68
2021/12/04 14:50:52;;;;;;;0.00;0.00;;;;;;;4.49;88.67;99606.00;5037691;28;20045;-68
2021/12/04 14:53:19;;;;;;;0.10;0.10;;;;;;;4.63;88.30;99609.03;5039232;28;20044;-69
2021/12/04 14:55:51;;;;;;;0.10;0.10;;;;;;;4.74;87.81;99597.28;5037758;28;20039;-67
2021/12/04 14:58:19;;;;;;;0.10;0.10;;;;;;;4.80;86.06;99607.84;5039056;28;20029;-68